createdAt,value
2019-05-29T00:00:33.315Z,81.00
2019-05-29T00:03:02.637Z,81.50
2019-05-29T00:05:31.958Z,82.50
2019-05-29T00:08:01.309Z,82.10
2019-05-29T00:10:30.734Z,82.10
2019-05-29T00:13:00.078Z,82.10
2019-05-29T00:15:29.532Z,81.60
2019-05-29T00:17:58.886Z,82.50
2019-05-29T00:20:28.213Z,83.20
2019-05-29T00:22:57.570Z,83.00
2019-05-29T00:25:26.886Z,83.40
2019-05-29T00:27:56.289Z,83.40
2019-05-29T00:30:25.648Z,82.80
2019-05-29T00:32:55.002Z,83.70
2019-05-29T00:35:24.298Z,83.30
2019-05-29T00:37:53.634Z,82.10
2019-05-29T00:40:23.018Z,81.20
2019-05-29T00:42:52.364Z,79.80
2019-05-29T00:45:21.818Z,80.10
2019-05-29T00:47:51.137Z,80.10
2019-05-29T00:50:20.607Z,80.50
2019-05-29T00:52:49.923Z,79.70
2019-05-29T00:55:19.338Z,80.00
2019-05-29T00:57:48.658Z,80.00
2019-05-29T01:00:19.396Z,80.70
2019-05-29T01:02:48.858Z,81.20
2019-05-29T01:05:18.242Z,80.70
2019-05-29T01:07:47.575Z,79.30
2019-05-29T01:10:18.954Z,79.00
2019-05-29T01:12:48.406Z,79.10
2019-05-29T01:15:18.061Z,78.80
2019-05-29T01:17:47.388Z,79.30
2019-05-29T01:20:18.044Z,79.70
2019-05-29T01:22:47.459Z,80.00
2019-05-29T01:25:16.925Z,81.10
2019-05-29T01:27:46.259Z,81.10
2019-05-29T01:30:17.285Z,81.00
2019-05-29T01:32:46.761Z,82.00
2019-05-29T01:35:16.245Z,81.20
2019-05-29T01:37:45.562Z,81.90
2019-05-29T01:40:20.123Z,83.70
2019-05-29T01:42:49.757Z,83.20
2019-05-29T01:45:17.663Z,83.20
2019-05-29T01:47:46.988Z,84.00
2019-05-29T01:50:17.673Z,84.50
2019-05-29T01:52:47.140Z,85.10
2019-05-29T01:55:17.709Z,88.00
2019-05-29T01:57:47.441Z,90.40
2019-05-29T02:00:17.821Z,91.60
2019-05-29T02:02:47.213Z,92.00
2019-05-29T02:05:17.726Z,92.40
2019-05-29T02:07:47.341Z,92.00
2019-05-29T02:10:18.092Z,92.00
2019-05-29T02:12:47.594Z,91.70
2019-05-29T02:15:26.039Z,91.90
2019-05-29T02:17:48.705Z,90.90
2019-05-29T02:20:21.011Z,90.10
2019-05-29T02:22:50.588Z,89.50
2019-05-29T02:25:22.654Z,90.00
2019-05-29T02:27:52.033Z,88.70
2019-05-29T02:30:23.653Z,90.10
2019-05-29T02:32:52.664Z,90.10
2019-05-29T02:35:24.065Z,91.30
2019-05-29T02:37:53.118Z,91.60
2019-05-29T02:40:24.138Z,90.70
2019-05-29T02:42:53.694Z,90.90
2019-05-29T02:45:49.281Z,90.10
2019-05-29T02:47:57.011Z,88.60
2019-05-29T02:50:28.750Z,86.50
2019-05-29T02:52:57.489Z,87.80
2019-05-29T02:55:27.057Z,89.40
2019-05-29T02:57:57.814Z,90.20
2019-05-29T03:00:51.121Z,89.20
2019-05-29T03:03:23.521Z,89.70
2019-05-29T03:05:55.091Z,87.50
2019-05-29T03:08:26.948Z,87.90
2019-05-29T03:10:56.046Z,86.50
2019-05-29T03:13:26.172Z,87.70
2019-05-29T03:16:09.808Z,88.90
2019-05-29T03:18:28.108Z,89.10
2019-05-29T03:20:57.610Z,88.20
2019-05-29T03:23:28.838Z,87.90
2019-05-29T03:25:58.035Z,87.40
2019-05-29T03:28:27.636Z,87.10
2019-05-29T03:30:57.198Z,86.80
2019-05-29T03:33:28.520Z,88.40
2019-05-29T03:35:57.593Z,87.90
2019-05-29T03:38:28.302Z,89.90
2019-05-29T03:40:57.721Z,90.00
2019-05-29T03:43:28.592Z,88.90
2019-05-29T03:45:58.286Z,86.80
2019-05-29T03:48:27.905Z,87.10
2019-05-29T03:50:57.349Z,89.00
2019-05-29T03:53:27.093Z,89.40
2019-05-29T03:55:56.473Z,90.50
2019-05-29T03:58:26.396Z,89.30
2019-05-29T04:00:57.747Z,88.60
2019-05-29T04:03:28.838Z,87.40
2019-05-29T04:05:58.394Z,88.60
2019-05-29T04:08:29.277Z,89.10
2019-05-29T04:10:59.448Z,90.40
2019-05-29T04:13:29.634Z,90.30
2019-05-29T04:16:01.640Z,88.90
2019-05-29T04:18:33.950Z,89.30
2019-05-29T04:21:04.463Z,89.60
2019-05-29T04:23:36.252Z,87.30
2019-05-29T04:26:06.101Z,87.60
2019-05-29T04:28:37.326Z,89.80
2019-05-29T04:31:07.189Z,88.90
2019-05-29T04:33:36.838Z,90.20
2019-05-29T04:36:07.579Z,89.10
2019-05-29T04:38:39.718Z,88.60
2019-05-29T04:41:07.993Z,88.40
2019-05-29T04:43:37.945Z,89.80
2019-05-29T04:46:08.378Z,89.50
2019-05-29T04:48:39.928Z,88.80
2019-05-29T04:51:08.878Z,89.10
2019-05-29T04:53:39.880Z,89.50
2019-05-29T04:56:09.481Z,90.30
2019-05-29T04:58:39.100Z,90.80
2019-05-29T05:01:08.578Z,91.10
2019-05-29T05:03:37.925Z,90.40
2019-05-29T05:06:07.271Z,89.50
2019-05-29T05:08:37.446Z,89.20
2019-05-29T05:11:06.815Z,87.70
2019-05-29T05:13:36.238Z,88.40
2019-05-29T05:16:05.971Z,88.80
2019-05-29T05:18:35.836Z,88.00
2019-05-29T05:21:05.324Z,88.30
2019-05-29T05:23:34.677Z,87.50
2019-05-29T05:26:04.070Z,88.00
2019-05-29T05:28:34.323Z,88.10
2019-05-29T05:31:03.731Z,87.00
2019-05-29T05:33:33.075Z,86.50
2019-05-29T05:36:02.467Z,87.40
2019-05-29T05:38:32.592Z,87.90
2019-05-29T05:41:02.014Z,88.60
2019-05-29T05:43:31.359Z,89.50
2019-05-29T05:46:00.706Z,88.80
2019-05-29T05:48:30.948Z,88.80
2019-05-29T05:51:00.428Z,89.90
2019-05-29T05:53:29.766Z,89.80
2019-05-29T05:55:59.083Z,89.70
2019-05-29T05:58:28.458Z,89.20
2019-05-29T06:00:57.837Z,89.10
2019-05-29T06:03:27.278Z,88.50
2019-05-29T06:05:56.669Z,89.50
2019-05-29T06:08:26.005Z,89.50
2019-05-29T06:10:55.329Z,89.40
2019-05-29T06:13:24.743Z,90.00
2019-05-29T06:15:54.077Z,90.40
2019-05-29T06:18:23.431Z,90.50
2019-05-29T06:20:52.760Z,90.90
2019-05-29T06:23:22.240Z,91.00
2019-05-29T06:25:51.561Z,90.50
2019-05-29T06:28:20.903Z,90.20
2019-05-29T06:30:50.429Z,88.50
2019-05-29T06:33:19.774Z,89.20
2019-05-29T06:35:49.115Z,90.00
2019-05-29T06:38:18.477Z,89.30
2019-05-29T06:40:47.874Z,88.90
2019-05-29T06:43:27.008Z,88.90
2019-05-29T06:45:56.708Z,89.50
2019-05-29T06:48:58.642Z,88.60
2019-05-29T06:51:00.538Z,89.30
2019-05-29T06:53:29.930Z,88.70
2019-05-29T06:56:01.073Z,88.30
2019-05-29T06:58:30.431Z,88.40
2019-05-29T07:00:59.898Z,89.40
2019-05-29T07:03:29.261Z,90.30
2019-05-29T07:05:58.594Z,90.60
2019-05-29T07:08:38.097Z,90.00
2019-05-29T07:10:59.064Z,90.00
2019-05-29T07:13:28.387Z,90.10
2019-05-29T07:15:57.773Z,90.10
2019-05-29T07:18:27.103Z,88.60
2019-05-29T07:20:56.476Z,88.10
2019-05-29T07:23:25.819Z,87.50
2019-05-29T07:25:55.228Z,86.80
2019-05-29T07:28:24.554Z,87.10
2019-05-29T07:31:02.101Z,88.90
2019-05-29T07:33:24.974Z,87.30
2019-05-29T07:35:54.328Z,86.70
2019-05-29T07:38:23.655Z,87.40
2019-05-29T07:40:53.023Z,86.80
2019-05-29T07:43:22.375Z,86.30
2019-05-29T07:45:51.874Z,86.80
2019-05-29T07:48:21.215Z,85.50
2019-05-29T07:51:04.456Z,87.30
2019-05-29T07:53:21.594Z,86.00
2019-05-29T07:55:50.937Z,85.80
2019-05-29T07:58:20.258Z,86.90
2019-05-29T08:01:12.238Z,87.40
2019-05-29T08:03:23.655Z,86.20
2019-05-29T08:05:53.440Z,84.80
2019-05-29T08:08:22.919Z,85.20
2019-05-29T08:10:52.263Z,82.70
2019-05-29T08:13:21.579Z,79.40
2019-05-29T08:16:01.978Z,80.40
2019-05-29T08:18:21.967Z,82.00
2019-05-29T08:20:51.318Z,83.10
2019-05-29T08:23:20.657Z,82.90
2019-05-29T08:25:50.014Z,78.50
2019-05-29T08:28:19.317Z,77.50
2019-05-29T08:30:54.088Z,78.70
2019-05-29T08:33:19.705Z,79.40
2019-05-29T08:35:57.692Z,79.90
2019-05-29T08:38:20.128Z,78.30
2019-05-29T08:40:49.602Z,78.40
2019-05-29T08:43:19.004Z,79.60
2019-05-29T08:45:49.602Z,77.80
2019-05-29T08:48:19.027Z,76.00
2019-05-29T08:50:48.371Z,75.20
2019-05-29T08:53:17.732Z,75.40
2019-05-29T08:55:48.162Z,75.80
2019-05-29T08:58:17.745Z,73.80
2019-05-29T09:00:50.536Z,73.40
2019-05-29T09:03:18.148Z,74.00
2019-05-29T09:06:04.313Z,73.30
2019-05-29T09:08:18.580Z,75.00
2019-05-29T09:10:49.244Z,73.50
2019-05-29T09:13:18.924Z,71.70
2019-05-29T09:15:48.267Z,72.80
2019-05-29T09:18:17.659Z,72.80
2019-05-29T09:21:01.752Z,74.40
2019-05-29T09:23:18.900Z,73.90
2019-05-29T09:25:48.510Z,73.40
2019-05-29T09:28:18.359Z,73.20
2019-05-29T09:30:47.791Z,73.10
2019-05-29T09:33:18.664Z,73.50
2019-05-29T09:35:48.184Z,70.40
2019-05-29T09:38:18.652Z,70.40
2019-05-29T09:40:48.217Z,68.50
2019-05-29T09:43:18.662Z,68.20
2019-05-29T09:45:48.593Z,66.80
2019-05-29T09:48:20.100Z,67.80
2019-05-29T09:50:50.765Z,66.30
2019-05-29T09:53:20.038Z,67.30
2019-05-29T09:55:49.366Z,68.60
2019-05-29T09:58:18.702Z,68.40
2019-05-29T10:01:05.092Z,66.10
2019-05-29T10:03:19.435Z,65.60
2019-05-29T10:05:48.784Z,67.20
2019-05-29T10:08:18.174Z,65.10
2019-05-29T10:10:47.553Z,65.30
2019-05-29T10:13:16.956Z,66.60
2019-05-29T10:15:46.299Z,64.30
2019-05-29T10:18:31.383Z,64.50
2019-05-29T10:20:46.689Z,65.50
2019-05-29T10:23:16.023Z,68.20
2019-05-29T10:25:45.341Z,68.60
2019-05-29T10:28:14.723Z,67.70
2019-05-29T10:30:44.432Z,67.70
2019-05-29T10:33:15.270Z,67.90
2019-05-29T10:35:44.808Z,66.20
2019-05-29T10:38:14.205Z,66.00
2019-05-29T10:40:47.061Z,68.00
2019-05-29T10:43:14.625Z,68.20
2019-05-29T10:45:45.649Z,68.50
2019-05-29T10:48:15.178Z,65.80
2019-05-29T10:50:47.791Z,65.60
2019-05-29T10:53:15.552Z,63.80
2019-05-29T10:55:46.325Z,64.20
2019-05-29T10:58:15.632Z,64.10
2019-05-29T11:00:45.349Z,64.40
2019-05-29T11:03:14.874Z,65.00
2019-05-29T11:05:45.476Z,62.30
2019-05-29T11:08:14.998Z,62.90
2019-05-29T11:10:44.318Z,62.10
2019-05-29T11:13:13.745Z,63.80
2019-05-29T11:15:43.063Z,63.90
2019-05-29T11:18:12.421Z,66.10
2019-05-29T11:20:41.813Z,63.90
2019-05-29T11:23:12.809Z,64.10
2019-05-29T11:25:42.954Z,63.20
2019-05-29T11:28:12.330Z,61.30
2019-05-29T11:30:41.655Z,62.00
2019-05-29T11:33:11.025Z,61.50
2019-05-29T11:35:56.830Z,60.90
2019-05-29T11:38:11.499Z,60.80
2019-05-29T11:40:41.038Z,59.10
2019-05-29T11:43:10.477Z,61.10
2019-05-29T11:45:39.851Z,59.90
2019-05-29T11:48:09.150Z,60.30
2019-05-29T11:50:38.478Z,60.30
2019-05-29T11:53:07.902Z,59.00
2019-05-29T11:55:37.245Z,58.20
2019-05-29T11:58:06.659Z,58.10
2019-05-29T12:00:36.048Z,57.50
2019-05-29T12:03:06.869Z,58.50
2019-05-29T12:05:36.230Z,59.70
2019-05-29T12:08:05.734Z,58.00
2019-05-29T12:10:35.055Z,57.20
2019-05-29T12:13:04.467Z,58.90
2019-05-29T12:15:33.805Z,61.00
2019-05-29T12:18:20.866Z,62.60
2019-05-29T12:20:34.466Z,62.50
2019-05-29T12:23:24.778Z,62.80
2019-05-29T12:25:35.083Z,63.30
2019-05-29T12:28:04.586Z,63.00
2019-05-29T12:30:34.627Z,64.50
2019-05-29T12:33:04.417Z,64.50
2019-05-29T12:35:33.731Z,63.40
2019-05-29T12:38:03.530Z,63.50
2019-05-29T12:40:32.887Z,64.10
2019-05-29T12:43:03.651Z,64.30
2019-05-29T12:45:33.145Z,64.50
2019-05-29T12:48:09.822Z,64.10
2019-05-29T12:50:34.706Z,64.30
2019-05-29T12:53:05.738Z,64.20
2019-05-29T12:55:35.075Z,63.90
2019-05-29T12:58:04.729Z,62.10
2019-05-29T13:00:34.118Z,61.80
2019-05-29T13:03:05.054Z,60.80
2019-05-29T13:05:34.754Z,62.40
2019-05-29T13:08:05.212Z,61.50
2019-05-29T13:10:34.950Z,60.80
2019-05-29T13:13:10.068Z,60.00
2019-05-29T13:15:35.343Z,58.10
2019-05-29T13:18:09.516Z,57.70
2019-05-29T13:20:35.996Z,58.60
2019-05-29T13:23:07.306Z,60.20
2019-05-29T13:25:36.885Z,60.10
2019-05-29T13:28:06.353Z,57.40
2019-05-29T13:30:35.751Z,56.60
2019-05-29T13:33:07.379Z,56.70
2019-05-29T13:35:36.204Z,57.30
2019-05-29T13:38:05.599Z,58.30
2019-05-29T13:40:35.012Z,54.90
2019-05-29T13:43:11.159Z,53.60
2019-05-29T13:45:35.484Z,53.80
2019-05-29T13:48:05.455Z,54.10
2019-05-29T13:50:34.964Z,55.70
2019-05-29T13:53:05.512Z,54.80
2019-05-29T13:55:35.022Z,55.30
2019-05-29T13:58:04.397Z,53.60
2019-05-29T14:00:35.026Z,55.50
2019-05-29T14:03:06.937Z,55.50
2019-05-29T14:05:36.588Z,53.50
2019-05-29T14:08:07.045Z,54.70
2019-05-29T14:10:36.781Z,53.10
2019-05-29T14:13:07.431Z,53.40
2019-05-29T14:15:36.842Z,54.80
2019-05-29T14:18:07.093Z,53.80
2019-05-29T14:20:36.588Z,51.40
2019-05-29T14:23:07.478Z,52.20
2019-05-29T14:25:37.008Z,53.20
2019-05-29T14:28:06.892Z,52.90
2019-05-29T14:30:36.383Z,50.50
2019-05-29T14:33:06.827Z,50.30
2019-05-29T14:35:36.658Z,50.70
2019-05-29T14:38:09.923Z,49.40
2019-05-29T14:40:37.124Z,53.40
2019-05-29T14:43:10.117Z,53.20
2019-05-29T14:45:37.635Z,52.80
2019-05-29T14:48:08.175Z,51.60
2019-05-29T14:50:37.568Z,50.90
2019-05-29T14:53:13.698Z,53.10
2019-05-29T14:55:43.030Z,52.40
2019-05-29T14:58:12.365Z,52.50
2019-05-29T15:00:41.705Z,52.70
2019-05-29T15:03:11.575Z,53.00
2019-05-29T15:05:41.064Z,53.80
2019-05-29T15:08:10.432Z,53.20
2019-05-29T15:10:40.971Z,53.30
2019-05-29T15:13:15.353Z,52.90
2019-05-29T15:15:47.561Z,52.90
2019-05-29T15:18:18.967Z,50.90
2019-05-29T15:20:48.004Z,52.20
2019-05-29T15:23:20.374Z,53.30
2019-05-29T15:25:49.830Z,53.80
2019-05-29T15:28:19.154Z,54.20
2019-05-29T15:30:50.196Z,54.10
2019-05-29T15:33:19.507Z,55.20
2019-05-29T15:35:48.895Z,55.30
2019-05-29T15:38:18.219Z,56.20
2019-05-29T15:40:47.699Z,53.30
2019-05-29T15:43:17.342Z,53.40
2019-05-29T15:45:47.175Z,53.40
2019-05-29T15:48:17.381Z,55.50
2019-05-29T15:50:46.873Z,55.30
2019-05-29T15:53:17.285Z,57.10
2019-05-29T15:55:46.793Z,54.70
2019-05-29T15:58:17.796Z,55.10
2019-05-29T16:00:48.025Z,56.20
2019-05-29T16:03:17.776Z,55.90
2019-05-29T16:05:47.367Z,55.20
2019-05-29T16:08:16.771Z,55.70
2019-05-29T16:10:46.113Z,55.60
2019-05-29T16:13:17.335Z,56.50
2019-05-29T16:15:46.975Z,59.00
2019-05-29T16:18:26.191Z,61.90
2019-05-29T16:20:47.448Z,61.90
2019-05-29T16:23:31.026Z,60.90
2019-05-29T16:25:47.954Z,62.10
2019-05-29T16:28:17.365Z,63.10
2019-05-29T16:30:46.714Z,62.70
2019-05-29T16:33:17.222Z,62.90
2019-05-29T16:35:48.593Z,63.30
2019-05-29T16:38:18.021Z,63.30
2019-05-29T16:40:48.887Z,64.40
2019-05-29T16:43:20.409Z,63.10
2019-05-29T16:45:50.187Z,62.80
2019-05-29T16:48:20.652Z,62.60
2019-05-29T16:50:49.982Z,62.60
2019-05-29T16:53:23.281Z,61.80
2019-05-29T16:55:54.186Z,62.60
2019-05-29T16:58:24.148Z,63.50
2019-05-29T17:00:53.501Z,64.20
2019-05-29T17:03:23.811Z,65.30
2019-05-29T17:05:53.314Z,66.40
2019-05-29T17:08:22.676Z,67.00
2019-05-29T17:10:52.015Z,67.10
2019-05-29T17:13:22.439Z,68.00
2019-05-29T17:15:54.823Z,68.40
2019-05-29T17:18:25.934Z,69.20
2019-05-29T17:20:55.269Z,68.60
2019-05-29T17:23:25.082Z,67.70
2019-05-29T17:26:09.713Z,69.00
2019-05-29T17:28:28.080Z,69.00
2019-05-29T17:30:56.651Z,68.00
2019-05-29T17:33:30.880Z,68.20
2019-05-29T17:36:00.311Z,67.40
2019-05-29T17:38:31.729Z,67.40
2019-05-29T17:41:01.081Z,71.60
2019-05-29T17:43:30.438Z,74.80
2019-05-29T17:45:59.949Z,67.00
2019-05-29T17:48:29.364Z,72.40
2019-05-29T17:50:58.770Z,69.70
2019-05-29T17:53:31.860Z,64.20
2019-05-29T17:56:01.253Z,68.20
2019-05-29T17:58:30.809Z,66.20
2019-05-29T18:01:05.262Z,65.90
2019-05-29T18:03:34.603Z,63.90
2019-05-29T18:06:04.172Z,65.50
2019-05-29T18:08:33.576Z,65.80
2019-05-29T18:11:02.917Z,65.60
2019-05-29T18:13:32.303Z,64.00
2019-05-29T18:16:01.687Z,63.20
2019-05-29T18:18:31.079Z,62.80
2019-05-29T18:21:00.361Z,64.60
2019-05-29T18:23:29.696Z,66.50
2019-05-29T18:25:59.016Z,66.10
2019-05-29T18:28:28.399Z,67.00
2019-05-29T18:30:57.772Z,66.80
2019-05-29T18:33:27.157Z,68.00
2019-05-29T18:35:56.521Z,67.50
2019-05-29T18:38:26.525Z,67.30
2019-05-29T18:40:56.155Z,68.30
2019-05-29T18:43:26.582Z,68.20
2019-05-29T18:45:56.961Z,68.90
2019-05-29T18:48:27.279Z,68.40
2019-05-29T18:50:56.785Z,68.40
2019-05-29T18:53:26.982Z,67.80
2019-05-29T18:55:56.404Z,68.80
2019-05-29T18:58:26.044Z,69.10
2019-05-29T19:00:55.421Z,69.40
2019-05-29T19:03:25.381Z,70.00
2019-05-29T19:05:54.785Z,71.40
2019-05-29T19:08:24.231Z,72.90
2019-05-29T19:10:53.580Z,74.30
2019-05-29T19:13:23.773Z,75.30
2019-05-29T19:15:53.398Z,76.20
2019-05-29T19:18:24.085Z,78.10
2019-05-29T19:20:53.499Z,79.30
2019-05-29T19:23:22.894Z,78.90
2019-05-29T19:25:52.244Z,79.00
2019-05-29T19:28:22.492Z,79.30
2019-05-29T19:30:52.036Z,79.70
2019-05-29T19:33:25.212Z,80.40
2019-05-29T19:35:55.959Z,80.30
2019-05-29T19:38:25.664Z,80.70
2019-05-29T19:40:55.214Z,80.20
2019-05-29T19:43:24.609Z,80.50
2019-05-29T19:45:53.960Z,81.00
2019-05-29T19:48:24.671Z,81.80
2019-05-29T19:50:54.109Z,82.90
2019-05-29T19:53:26.884Z,83.50
2019-05-29T19:55:56.690Z,83.30
2019-05-29T19:58:26.019Z,83.40
2019-05-29T20:00:55.371Z,83.50
2019-05-29T20:03:26.601Z,83.60
2019-05-29T20:05:56.890Z,84.60
2019-05-29T20:08:27.051Z,85.10
2019-05-29T20:10:56.425Z,84.30
2019-05-29T20:13:29.835Z,84.30
2019-05-29T20:16:01.951Z,85.70
2019-05-29T20:18:32.084Z,86.70
2019-05-29T20:21:04.672Z,86.90
2019-05-29T20:23:36.768Z,86.20
2019-05-29T20:26:08.004Z,86.70
2019-05-29T20:28:42.549Z,86.90
2019-05-29T20:31:28.632Z,87.20
2019-05-29T20:34:17.198Z,88.10
2019-05-29T20:37:00.419Z,88.10
2019-05-29T20:39:32.837Z,88.60
2019-05-29T20:42:12.948Z,89.10
2019-05-29T20:44:52.212Z,89.90
2019-05-29T20:50:26.849Z,88.80
2019-05-29T20:52:56.213Z,88.90
2019-05-29T20:55:27.336Z,88.40
2019-05-29T20:57:57.042Z,89.10
2019-05-29T21:00:26.627Z,89.70
2019-05-29T21:02:56.004Z,90.00
2019-05-29T21:05:25.527Z,90.30
2019-05-29T21:07:58.221Z,90.70
2019-05-29T21:10:33.096Z,90.30
2019-05-29T21:13:04.775Z,90.30
2019-05-29T21:15:35.726Z,90.20
2019-05-29T21:18:08.160Z,90.30
2019-05-29T21:20:40.413Z,90.40
2019-05-29T21:23:12.259Z,90.70
2019-05-29T21:25:53.830Z,90.70
2019-05-29T21:28:39.667Z,90.50
2019-05-29T21:31:01.484Z,90.40
2019-05-29T21:33:30.820Z,90.60
2019-05-29T21:36:00.224Z,90.70
2019-05-29T21:38:29.729Z,90.90
2019-05-29T21:40:59.083Z,90.50
2019-05-29T21:43:28.506Z,90.80
2019-05-29T21:45:57.835Z,90.70
2019-05-29T21:48:27.235Z,91.10
2019-05-29T21:50:57.044Z,91.40
2019-05-29T21:53:26.561Z,91.20
2019-05-29T21:55:55.917Z,91.20
2019-05-29T21:58:25.256Z,91.40
2019-05-29T22:00:55.296Z,91.40
2019-05-29T22:03:24.783Z,90.80
2019-05-29T22:05:54.196Z,91.00
2019-05-29T22:08:23.525Z,91.70
2019-05-29T22:10:53.432Z,91.90
2019-05-29T22:13:22.970Z,92.00
2019-05-29T22:15:52.702Z,92.30
2019-05-29T22:18:22.001Z,92.40
2019-05-29T22:20:51.547Z,92.50
2019-05-29T22:23:21.970Z,92.50
2019-05-29T22:25:51.313Z,92.20
2019-05-29T22:28:20.643Z,91.80
2019-05-29T22:30:51.162Z,92.00
2019-05-29T22:33:20.735Z,92.00
2019-05-29T22:35:54.086Z,91.70
2019-05-29T22:38:23.915Z,91.80
2019-05-29T22:40:53.956Z,91.70
2019-05-29T22:43:23.371Z,91.40
2019-05-29T22:45:53.617Z,91.70
2019-05-29T22:48:23.570Z,91.80
2019-05-29T22:50:53.843Z,91.80
2019-05-29T22:53:23.289Z,92.10
2019-05-29T22:55:53.700Z,92.20
2019-05-29T22:58:23.149Z,92.10
2019-05-29T23:00:52.488Z,92.20
2019-05-29T23:03:21.856Z,92.10
2019-05-29T23:05:52.053Z,92.10
2019-05-29T23:08:21.538Z,92.40
2019-05-29T23:10:52.162Z,92.60
2019-05-29T23:13:21.603Z,92.50
2019-05-29T23:15:52.315Z,92.60
2019-05-29T23:18:21.654Z,93.00
2019-05-29T23:20:52.290Z,93.00
2019-05-29T23:23:21.821Z,92.90
2019-05-29T23:25:52.453Z,92.60
2019-05-29T23:28:22.004Z,92.30
2019-05-29T23:30:52.684Z,92.60
2019-05-29T23:33:22.117Z,92.40
2019-05-29T23:35:51.430Z,92.80
2019-05-29T23:38:20.768Z,93.00
2019-05-29T23:40:50.103Z,93.10
2019-05-29T23:43:19.435Z,93.40
2019-05-29T23:45:48.754Z,93.70
2019-05-29T23:48:18.093Z,93.80
2019-05-29T23:50:47.414Z,93.80
2019-05-29T23:53:16.762Z,93.60
2019-05-29T23:55:46.246Z,93.50
2019-05-29T23:58:15.591Z,93.40
